Terminal Aerodrome Forecast
Issued by NWS

Home | Current Version | Previous Version | Text Only | Print | Product List | Glossary On
Versions: 1 2 3 4 5 6 7 8 9 10 11 12 13 14 15 16 17 18 19 20
000
FTUS43 KGLD 261026 AAA
TAFMCK
TAF AMD
KMCK 261026Z 2610/2706 12004KT 3SM BR OVC002
      TEMPO 2611/2614 1/2SM FG
     FM261400 10005KT 1SM BR BKN008
     FM261600 08005KT 3SM BR BKN010
     FM261700 09007KT P6SM BKN100
     FM262200 06006KT P6SM BKN090=

USA.gov is the U.S. government's official web portal to all federal, state and local government web resources and services.